sensor_id;sensor_type;location;lat;lon;timestamp;pressure;altitude;pressure_sealevel;temperature
22269;BMP280;11303;50.772;19.670;2022-12-18T00:00:28;100397.06;;;-4.62
22269;BMP280;11303;50.772;19.670;2022-12-18T00:02:30;100394.75;;;-4.58
22269;BMP280;11303;50.772;19.670;2022-12-18T00:04:32;100396.56;;;-4.59
22269;BMP280;11303;50.772;19.670;2022-12-18T00:06:34;100400.44;;;-4.56
22269;BMP280;11303;50.772;19.670;2022-12-18T00:08:36;100396.06;;;-4.56
22269;BMP280;11303;50.772;19.670;2022-12-18T00:10:37;100397.59;;;-4.55
22269;BMP280;11303;50.772;19.670;2022-12-18T00:12:39;100402.78;;;-4.55
22269;BMP280;11303;50.772;19.670;2022-12-18T00:14:40;100402.53;;;-4.53
22269;BMP280;11303;50.772;19.670;2022-12-18T00:16:45;100400.75;;;-4.53
22269;BMP280;11303;50.772;19.670;2022-12-18T00:18:48;100404.66;;;-4.50
22269;BMP280;11303;50.772;19.670;2022-12-18T00:20:50;100406.25;;;-4.49
22269;BMP280;11303;50.772;19.670;2022-12-18T00:22:52;100400.28;;;-4.50
22269;BMP280;11303;50.772;19.670;2022-12-18T00:24:54;100403.38;;;-4.48
22269;BMP280;11303;50.772;19.670;2022-12-18T00:26:55;100411.94;;;-4.47
22269;BMP280;11303;50.772;19.670;2022-12-18T00:29:03;100407.53;;;-4.47
22269;BMP280;11303;50.772;19.670;2022-12-18T00:31:11;100415.06;;;-4.45
22269;BMP280;11303;50.772;19.670;2022-12-18T00:33:13;100415.06;;;-4.45
22269;BMP280;11303;50.772;19.670;2022-12-18T00:35:15;100434.50;;;-4.43
22269;BMP280;11303;50.772;19.670;2022-12-18T00:37:16;100421.28;;;-4.41
22269;BMP280;11303;50.772;19.670;2022-12-18T00:39:20;100427.53;;;-4.37
22269;BMP280;11303;50.772;19.670;2022-12-18T00:41:23;100421.59;;;-4.38
22269;BMP280;11303;50.772;19.670;2022-12-18T00:43:43;100429.09;;;-4.36
22269;BMP280;11303;50.772;19.670;2022-12-18T00:45:45;100432.19;;;-4.34
22269;BMP280;11303;50.772;19.670;2022-12-18T00:47:47;100434.28;;;-4.36
22269;BMP280;11303;50.772;19.670;2022-12-18T00:49:48;100439.72;;;-4.33
22269;BMP280;11303;50.772;19.670;2022-12-18T00:51:50;100438.97;;;-4.33
22269;BMP280;11303;50.772;19.670;2022-12-18T00:53:51;100438.97;;;-4.33
22269;BMP280;11303;50.772;19.670;2022-12-18T00:55:53;100443.09;;;-4.32
22269;BMP280;11303;50.772;19.670;2022-12-18T00:57:54;100453.00;;;-4.29
22269;BMP280;11303;50.772;19.670;2022-12-18T00:59:56;100455.59;;;-4.29
22269;BMP280;11303;50.772;19.670;2022-12-18T01:01:57;100463.09;;;-4.28
22269;BMP280;11303;50.772;19.670;2022-12-18T01:04:01;100465.44;;;-4.26
22269;BMP280;11303;50.772;19.670;2022-12-18T01:06:11;100461.81;;;-4.25
22269;BMP280;11303;50.772;19.670;2022-12-18T01:08:13;100474.00;;;-4.26
22269;BMP280;11303;50.772;19.670;2022-12-18T01:10:14;100472.72;;;-4.23
22269;BMP280;11303;50.772;19.670;2022-12-18T01:12:16;100475.31;;;-4.23
22269;BMP280;11303;50.772;19.670;2022-12-18T01:14:17;100475.06;;;-4.22
22269;BMP280;11303;50.772;19.670;2022-12-18T01:16:19;100476.84;;;-4.22
22269;BMP280;11303;50.772;19.670;2022-12-18T01:18:20;100474.81;;;-4.20
22269;BMP280;11303;50.772;19.670;2022-12-18T01:20:22;100485.97;;;-4.20
22269;BMP280;11303;50.772;19.670;2022-12-18T01:22:23;100495.81;;;-4.17
22269;BMP280;11303;50.772;19.670;2022-12-18T01:24:25;100494.78;;;-4.16
22269;BMP280;11303;50.772;19.670;2022-12-18T01:26:27;100499.72;;;-4.14
22269;BMP280;11303;50.772;19.670;2022-12-18T01:28:30;100497.13;;;-4.14
22269;BMP280;11303;50.772;19.670;2022-12-18T01:30:32;100504.66;;;-4.13
22269;BMP280;11303;50.772;19.670;2022-12-18T01:32:34;100494.28;;;-4.13
22269;BMP280;11303;50.772;19.670;2022-12-18T01:34:36;100501.81;;;-4.11
22269;BMP280;11303;50.772;19.670;2022-12-18T01:36:38;100501.81;;;-4.11
22269;BMP280;11303;50.772;19.670;2022-12-18T01:38:40;100501.81;;;-4.11
22269;BMP280;11303;50.772;19.670;2022-12-18T01:40:41;100499.22;;;-4.11
22269;BMP280;11303;50.772;19.670;2022-12-18T01:42:43;100497.66;;;-4.12
22269;BMP280;11303;50.772;19.670;2022-12-18T01:47:15;100510.41;;;-4.11
22269;BMP280;11303;50.772;19.670;2022-12-18T01:49:18;100511.38;;;-4.12
22269;BMP280;11303;50.772;19.670;2022-12-18T01:51:20;100507.00;;;-4.11
22269;BMP280;11303;50.772;19.670;2022-12-18T01:53:23;100512.19;;;-4.11
22269;BMP280;11303;50.772;19.670;2022-12-18T01:55:28;100512.44;;;-4.13
22269;BMP280;11303;50.772;19.670;2022-12-18T01:57:30;100514.53;;;-4.10
22269;BMP280;11303;50.772;19.670;2022-12-18T01:59:33;100509.84;;;-4.13
22269;BMP280;11303;50.772;19.670;2022-12-18T02:01:36;100506.44;;;-4.13
22269;BMP280;11303;50.772;19.670;2022-12-18T02:03:43;100517.84;;;-4.14
22269;BMP280;11303;50.772;19.670;2022-12-18T02:06:11;100530.81;;;-4.14
22269;BMP280;11303;50.772;19.670;2022-12-18T02:10:36;100527.69;;;-4.16
22269;BMP280;11303;50.772;19.670;2022-12-18T02:12:48;100524.31;;;-4.17
22269;BMP280;11303;50.772;19.670;2022-12-18T02:17:14;100533.91;;;-4.17
22269;BMP280;11303;50.772;19.670;2022-12-18T02:21:59;100542.97;;;-4.15
22269;BMP280;11303;50.772;19.670;2022-12-18T02:26:22;100547.41;;;-4.15
22269;BMP280;11303;50.772;19.670;2022-12-18T02:28:32;100544.00;;;-4.16
22269;BMP280;11303;50.772;19.670;2022-12-18T02:30:35;100543.47;;;-4.18
22269;BMP280;11303;50.772;19.670;2022-12-18T02:32:42;100542.94;;;-4.20
22269;BMP280;11303;50.772;19.670;2022-12-18T02:34:45;100552.53;;;-4.20
22269;BMP280;11303;50.772;19.670;2022-12-18T02:36:47;100551.97;;;-4.22
22269;BMP280;11303;50.772;19.670;2022-12-18T02:38:51;100551.97;;;-4.22
22269;BMP280;11303;50.772;19.670;2022-12-18T02:40:54;100553.25;;;-4.25
22269;BMP280;11303;50.772;19.670;2022-12-18T02:43:02;100568.00;;;-4.25
22269;BMP280;11303;50.772;19.670;2022-12-18T02:45:04;100570.59;;;-4.25
22269;BMP280;11303;50.772;19.670;2022-12-18T02:47:10;100570.09;;;-4.27
22269;BMP280;11303;50.772;19.670;2022-12-18T02:51:30;100564.91;;;-4.27
22269;BMP280;11303;50.772;19.670;2022-12-18T02:53:40;100565.41;;;-4.30
22269;BMP280;11303;50.772;19.670;2022-12-18T03:00:20;100574.72;;;-4.29
22269;BMP280;11303;50.772;19.670;2022-12-18T03:02:40;100575.75;;;-4.30
22269;BMP280;11303;50.772;19.670;2022-12-18T03:07:15;100573.63;;;-4.33
22269;BMP280;11303;50.772;19.670;2022-12-18T03:09:23;100577.00;;;-4.33
22269;BMP280;11303;50.772;19.670;2022-12-18T03:11:28;100579.56;;;-4.33
22269;BMP280;11303;50.772;19.670;2022-12-18T03:13:52;100577.78;;;-4.32
22269;BMP280;11303;50.772;19.670;2022-12-18T03:15:59;100589.72;;;-4.31
22269;BMP280;11303;50.772;19.670;2022-12-18T03:18:08;100589.41;;;-4.35
22269;BMP280;11303;50.772;19.670;2022-12-18T03:20:18;100594.84;;;-4.36
22269;BMP280;11303;50.772;19.670;2022-12-18T03:22:22;100594.59;;;-4.35
22269;BMP280;11303;50.772;19.670;2022-12-18T03:24:26;100599.00;;;-4.35
22269;BMP280;11303;50.772;19.670;2022-12-18T03:26:29;100598.19;;;-4.36
22269;BMP280;11303;50.772;19.670;2022-12-18T03:28:34;100615.31;;;-4.35
22269;BMP280;11303;50.772;19.670;2022-12-18T03:30:39;100604.66;;;-4.38
22269;BMP280;11303;50.772;19.670;2022-12-18T03:34:50;100618.16;;;-4.36
22269;BMP280;11303;50.772;19.670;2022-12-18T03:36:52;100616.34;;;-4.36
22269;BMP280;11303;50.772;19.670;2022-12-18T03:38:53;100613.50;;;-4.34
22269;BMP280;11303;50.772;19.670;2022-12-18T03:41:18;100622.31;;;-4.35
22269;BMP280;11303;50.772;19.670;2022-12-18T03:45:55;100626.00;;;-4.31
22269;BMP280;11303;50.772;19.670;2022-12-18T03:53:19;100645.13;;;-4.32
22269;BMP280;11303;50.772;19.670;2022-12-18T03:55:24;100641.53;;;-4.31
22269;BMP280;11303;50.772;19.670;2022-12-18T03:57:30;100644.56;;;-4.34
22269;BMP280;11303;50.772;19.670;2022-12-18T03:59:33;100650.00;;;-4.36
22269;BMP280;11303;50.772;19.670;2022-12-18T04:01:40;100637.28;;;-4.37
22269;BMP280;11303;50.772;19.670;2022-12-18T04:03:44;100640.91;;;-4.38
22269;BMP280;11303;50.772;19.670;2022-12-18T04:05:50;100645.56;;;-4.40
22269;BMP280;11303;50.772;19.670;2022-12-18T04:07:53;100641.41;;;-4.41
22269;BMP280;11303;50.772;19.670;2022-12-18T04:09:56;100645.03;;;-4.42
22269;BMP280;11303;50.772;19.670;2022-12-18T04:12:00;100651.72;;;-4.46
22269;BMP280;11303;50.772;19.670;2022-12-18T04:14:01;100656.13;;;-4.47
22269;BMP280;11303;50.772;19.670;2022-12-18T04:16:07;100663.09;;;-4.47
22269;BMP280;11303;50.772;19.670;2022-12-18T04:18:10;100656.81;;;-4.51
22269;BMP280;11303;50.772;19.670;2022-12-18T04:20:12;100651.09;;;-4.53
22269;BMP280;11303;50.772;19.670;2022-12-18T04:22:13;100664.84;;;-4.53
22269;BMP280;11303;50.772;19.670;2022-12-18T04:24:15;100669.47;;;-4.55
22269;BMP280;11303;50.772;19.670;2022-12-18T04:26:16;100673.88;;;-4.55
22269;BMP280;11303;50.772;19.670;2022-12-18T04:28:18;100674.13;;;-4.57
22269;BMP280;11303;50.772;19.670;2022-12-18T04:30:19;100672.00;;;-4.60
22269;BMP280;11303;50.772;19.670;2022-12-18T04:32:21;100685.72;;;-4.59
22269;BMP280;11303;50.772;19.670;2022-12-18T04:34:22;100688.31;;;-4.59
22269;BMP280;11303;50.772;19.670;2022-12-18T04:36:24;100687.00;;;-4.62
22269;BMP280;11303;50.772;19.670;2022-12-18T04:38:25;100686.75;;;-4.60
22269;BMP280;11303;50.772;19.670;2022-12-18T04:40:27;100686.75;;;-4.60
22269;BMP280;11303;50.772;19.670;2022-12-18T04:42:28;100683.38;;;-4.61
22269;BMP280;11303;50.772;19.670;2022-12-18T04:44:30;100699.69;;;-4.60
22269;BMP280;11303;50.772;19.670;2022-12-18T04:46:31;100698.16;;;-4.61
22269;BMP280;11303;50.772;19.670;2022-12-18T04:48:33;100703.31;;;-4.61
22269;BMP280;11303;50.772;19.670;2022-12-18T04:50:35;100704.88;;;-4.60
22269;BMP280;11303;50.772;19.670;2022-12-18T04:52:36;100697.13;;;-4.60
22269;BMP280;11303;50.772;19.670;2022-12-18T04:54:38;100707.47;;;-4.60
22269;BMP280;11303;50.772;19.670;2022-12-18T04:56:39;100703.56;;;-4.63
22269;BMP280;11303;50.772;19.670;2022-12-18T04:58:43;100713.69;;;-4.61
22269;BMP280;11303;50.772;19.670;2022-12-18T05:00:45;100724.03;;;-4.61
22269;BMP280;11303;50.772;19.670;2022-12-18T05:02:46;100713.13;;;-4.63
22269;BMP280;11303;50.772;19.670;2022-12-18T05:04:48;100719.84;;;-4.62
22269;BMP280;11303;50.772;19.670;2022-12-18T05:06:49;100725.84;;;-4.62
22269;BMP280;11303;50.772;19.670;2022-12-18T05:08:51;100729.22;;;-4.61
22269;BMP280;11303;50.772;19.670;2022-12-18T05:13:01;100718.53;;;-4.65
22269;BMP280;11303;50.772;19.670;2022-12-18T05:15:03;100738.47;;;-4.65
22269;BMP280;11303;50.772;19.670;2022-12-18T05:17:04;100726.56;;;-4.66
22269;BMP280;11303;50.772;19.670;2022-12-18T05:19:06;100731.72;;;-4.66
22269;BMP280;11303;50.772;19.670;2022-12-18T05:21:07;100741.53;;;-4.68
22269;BMP280;11303;50.772;19.670;2022-12-18T05:23:09;100745.72;;;-4.67
22269;BMP280;11303;50.772;19.670;2022-12-18T05:25:10;100739.94;;;-4.69
22269;BMP280;11303;50.772;19.670;2022-12-18T05:27:12;100746.72;;;-4.68
22269;BMP280;11303;50.772;19.670;2022-12-18T05:29:13;100736.81;;;-4.71
22269;BMP280;11303;50.772;19.670;2022-12-18T05:31:15;100751.81;;;-4.73
22269;BMP280;11303;50.772;19.670;2022-12-18T05:33:18;100742.47;;;-4.74
22269;BMP280;11303;50.772;19.670;2022-12-18T05:35:19;100745.28;;;-4.76
22269;BMP280;11303;50.772;19.670;2022-12-18T05:37:21;100746.06;;;-4.75
22269;BMP280;11303;50.772;19.670;2022-12-18T05:39:22;100756.19;;;-4.74
22269;BMP280;11303;50.772;19.670;2022-12-18T05:41:24;100766.31;;;-4.72
22269;BMP280;11303;50.772;19.670;2022-12-18T05:43:26;100760.91;;;-4.71
22269;BMP280;11303;50.772;19.670;2022-12-18T05:45:28;100754.94;;;-4.71
22269;BMP280;11303;50.772;19.670;2022-12-18T05:47:29;100750.53;;;-4.71
22269;BMP280;11303;50.772;19.670;2022-12-18T05:49:31;100763.16;;;-4.74
22269;BMP280;11303;50.772;19.670;2022-12-18T05:51:32;100757.47;;;-4.76
22269;BMP280;11303;50.772;19.670;2022-12-18T05:53:35;100760.53;;;-4.79
22269;BMP280;11303;50.772;19.670;2022-12-18T05:55:39;100765.72;;;-4.79
22269;BMP280;11303;50.772;19.670;2022-12-18T05:57:40;100762.25;;;-4.85
22269;BMP280;11303;50.772;19.670;2022-12-18T05:59:42;100781.72;;;-4.82
22269;BMP280;11303;50.772;19.670;2022-12-18T06:01:43;100777.31;;;-4.82
22269;BMP280;11303;50.772;19.670;2022-12-18T06:03:45;100779.88;;;-4.82
22269;BMP280;11303;50.772;19.670;2022-12-18T06:05:48;100780.38;;;-4.85
22269;BMP280;11303;50.772;19.670;2022-12-18T06:07:49;100775.44;;;-4.87
22269;BMP280;11303;50.772;19.670;2022-12-18T06:09:51;100791.50;;;-4.84
22269;BMP280;11303;50.772;19.670;2022-12-18T06:11:52;100791.50;;;-4.84
22269;BMP280;11303;50.772;19.670;2022-12-18T06:13:55;100798.25;;;-4.83
22269;BMP280;11303;50.772;19.670;2022-12-18T06:16:02;100804.69;;;-4.86
22269;BMP280;11303;50.772;19.670;2022-12-18T06:18:04;100805.47;;;-4.85
22269;BMP280;11303;50.772;19.670;2022-12-18T06:20:06;100816.59;;;-4.85
22269;BMP280;11303;50.772;19.670;2022-12-18T06:22:08;100802.91;;;-4.85
22269;BMP280;11303;50.772;19.670;2022-12-18T06:24:09;100813.53;;;-4.82
22269;BMP280;11303;50.772;19.670;2022-12-18T06:26:12;100811.75;;;-4.81
22269;BMP280;11303;50.772;19.670;2022-12-18T06:28:14;100807.59;;;-4.82
22269;BMP280;11303;50.772;19.670;2022-12-18T06:30:15;100820.06;;;-4.79
22269;BMP280;11303;50.772;19.670;2022-12-18T06:32:17;100817.72;;;-4.81
22269;BMP280;11303;50.772;19.670;2022-12-18T06:34:18;100813.28;;;-4.80
22269;BMP280;11303;50.772;19.670;2022-12-18T06:36:20;100823.66;;;-4.80
22269;BMP280;11303;50.772;19.670;2022-12-18T06:38:22;100833.25;;;-4.81
22269;BMP280;11303;50.772;19.670;2022-12-18T06:40:23;100834.00;;;-4.80
22269;BMP280;11303;50.772;19.670;2022-12-18T06:42:25;100826.25;;;-4.80
22269;BMP280;11303;50.772;19.670;2022-12-18T06:44:26;100827.81;;;-4.79
22269;BMP280;11303;50.772;19.670;2022-12-18T06:46:28;100844.69;;;-4.77
22269;BMP280;11303;50.772;19.670;2022-12-18T06:48:30;100844.91;;;-4.78
22269;BMP280;11303;50.772;19.670;2022-12-18T06:50:31;100849.06;;;-4.77
22269;BMP280;11303;50.772;19.670;2022-12-18T06:52:33;100849.06;;;-4.77
22269;BMP280;11303;50.772;19.670;2022-12-18T06:54:35;100854.56;;;-4.74
22269;BMP280;11303;50.772;19.670;2022-12-18T06:56:36;100853.53;;;-4.73
22269;BMP280;11303;50.772;19.670;2022-12-18T06:58:38;100857.72;;;-4.72
22269;BMP280;11303;50.772;19.670;2022-12-18T07:00:40;100861.63;;;-4.69
22269;BMP280;11303;50.772;19.670;2022-12-18T07:02:42;100857.22;;;-4.69
22269;BMP280;11303;50.772;19.670;2022-12-18T07:04:44;100864.31;;;-4.64
22269;BMP280;11303;50.772;19.670;2022-12-18T07:06:45;100869.50;;;-4.64
22269;BMP280;11303;50.772;19.670;2022-12-18T07:08:48;100870.56;;;-4.60
22269;BMP280;11303;50.772;19.670;2022-12-18T07:10:50;100873.00;;;-4.54
22269;BMP280;11303;50.772;19.670;2022-12-18T07:12:56;100867.69;;;-4.47
22269;BMP280;11303;50.772;19.670;2022-12-18T07:14:58;100878.63;;;-4.40
22269;BMP280;11303;50.772;19.670;2022-12-18T07:16:59;100887.03;;;-4.33
22269;BMP280;11303;50.772;19.670;2022-12-18T07:19:00;100886.84;;;-4.32
22269;BMP280;11303;50.772;19.670;2022-12-18T07:21:06;100885.31;;;-4.28
22269;BMP280;11303;50.772;19.670;2022-12-18T07:23:08;100885.16;;;-4.21
22269;BMP280;11303;50.772;19.670;2022-12-18T07:25:09;100887.53;;;-4.20
22269;BMP280;11303;50.772;19.670;2022-12-18T07:27:11;100890.47;;;-4.11
22269;BMP280;11303;50.772;19.670;2022-12-18T07:29:12;100890.47;;;-4.11
22269;BMP280;11303;50.772;19.670;2022-12-18T07:31:17;100894.09;;;-4.12
22269;BMP280;11303;50.772;19.670;2022-12-18T07:33:18;100899.13;;;-4.06
22269;BMP280;11303;50.772;19.670;2022-12-18T07:35:20;100903.34;;;-4.00
22269;BMP280;11303;50.772;19.670;2022-12-18T07:37:25;100905.69;;;-3.98
22269;BMP280;11303;50.772;19.670;2022-12-18T07:39:27;100910.38;;;-3.95
22269;BMP280;11303;50.772;19.670;2022-12-18T07:41:28;100907.06;;;-3.91
22269;BMP280;11303;50.772;19.670;2022-12-18T07:43:30;100907.28;;;-3.97
22269;BMP280;11303;50.772;19.670;2022-12-18T07:45:32;100907.91;;;-3.90
22269;BMP280;11303;50.772;19.670;2022-12-18T07:47:35;100914.47;;;-3.83
22269;BMP280;11303;50.772;19.670;2022-12-18T07:49:37;100910.94;;;-3.72
22269;BMP280;11303;50.772;19.670;2022-12-18T07:51:39;100914.34;;;-3.71
22269;BMP280;11303;50.772;19.670;2022-12-18T07:53:40;100922.97;;;-3.66
22269;BMP280;11303;50.772;19.670;2022-12-18T07:55:43;100930.03;;;-3.61
22269;BMP280;11303;50.772;19.670;2022-12-18T07:58:04;100926.72;;;-3.57
22269;BMP280;11303;50.772;19.670;2022-12-18T08:00:06;100923.59;;;-3.59
22269;BMP280;11303;50.772;19.670;2022-12-18T08:02:09;100928.53;;;-3.57
22269;BMP280;11303;50.772;19.670;2022-12-18T08:04:12;100923.41;;;-3.52
22269;BMP280;11303;50.772;19.670;2022-12-18T08:06:14;100930.44;;;-3.48
22269;BMP280;11303;50.772;19.670;2022-12-18T08:08:15;100927.16;;;-3.43
22269;BMP280;11303;50.772;19.670;2022-12-18T08:10:17;100917.41;;;-3.31
22269;BMP280;11303;50.772;19.670;2022-12-18T08:12:18;100933.00;;;-3.31
22269;BMP280;11303;50.772;19.670;2022-12-18T08:14:19;100930.47;;;-3.26
22269;BMP280;11303;50.772;19.670;2022-12-18T08:16:23;100925.25;;;-3.26
22269;BMP280;11303;50.772;19.670;2022-12-18T08:18:24;100933.88;;;-3.20
22269;BMP280;11303;50.772;19.670;2022-12-18T08:20:26;100932.19;;;-3.10
22269;BMP280;11303;50.772;19.670;2022-12-18T08:22:28;100943.94;;;-3.02
22269;BMP280;11303;50.772;19.670;2022-12-18T08:24:29;100951.06;;;-2.93
22269;BMP280;11303;50.772;19.670;2022-12-18T08:26:31;100941.84;;;-2.79
22269;BMP280;11303;50.772;19.670;2022-12-18T08:28:33;100950.63;;;-2.85
22269;BMP280;11303;50.772;19.670;2022-12-18T08:30:35;100956.84;;;-2.86
22269;BMP280;11303;50.772;19.670;2022-12-18T08:32:37;100942.31;;;-2.87
22269;BMP280;11303;50.772;19.670;2022-12-18T08:34:39;100947.00;;;-2.84
22269;BMP280;11303;50.772;19.670;2022-12-18T08:36:40;100961.94;;;-2.96
22269;BMP280;11303;50.772;19.670;2022-12-18T08:38:42;100946.75;;;-2.82
22269;BMP280;11303;50.772;19.670;2022-12-18T08:40:43;100962.22;;;-2.66
22269;BMP280;11303;50.772;19.670;2022-12-18T08:42:45;100953.00;;;-2.52
22269;BMP280;11303;50.772;19.670;2022-12-18T08:45:07;100965.41;;;-2.59
22269;BMP280;11303;50.772;19.670;2022-12-18T08:47:09;100967.94;;;-2.64
22269;BMP280;11303;50.772;19.670;2022-12-18T08:49:11;100950.88;;;-2.60
22269;BMP280;11303;50.772;19.670;2022-12-18T08:51:15;100959.72;;;-2.56
22269;BMP280;11303;50.772;19.670;2022-12-18T08:53:17;100966.63;;;-2.35
22269;BMP280;11303;50.772;19.670;2022-12-18T08:55:19;100970.25;;;-2.36
22269;BMP280;11303;50.772;19.670;2022-12-18T08:57:21;100968.19;;;-2.34
22269;BMP280;11303;50.772;19.670;2022-12-18T08:59:23;100977.06;;;-2.30
22269;BMP280;11303;50.772;19.670;2022-12-18T09:01:24;100970.13;;;-2.24
22269;BMP280;11303;50.772;19.670;2022-12-18T09:03:26;100982.88;;;-2.23
22269;BMP280;11303;50.772;19.670;2022-12-18T09:05:28;100975.13;;;-2.13
22269;BMP280;11303;50.772;19.670;2022-12-18T09:07:29;100981.00;;;-1.86
22269;BMP280;11303;50.772;19.670;2022-12-18T09:09:31;100987.91;;;-1.64
22269;BMP280;11303;50.772;19.670;2022-12-18T09:11:32;100990.94;;;-1.77
22269;BMP280;11303;50.772;19.670;2022-12-18T09:13:34;100987.81;;;-1.79
22269;BMP280;11303;50.772;19.670;2022-12-18T09:15:43;100990.59;;;-1.86
22269;BMP280;11303;50.772;19.670;2022-12-18T09:17:46;100993.16;;;-1.96
22269;BMP280;11303;50.772;19.670;2022-12-18T09:19:48;100985.13;;;-1.95
22269;BMP280;11303;50.772;19.670;2022-12-18T09:21:49;100984.56;;;-2.02
22269;BMP280;11303;50.772;19.670;2022-12-18T09:23:51;100988.34;;;-1.77
22269;BMP280;11303;50.772;19.670;2022-12-18T09:25:58;100989.91;;;-1.76
22269;BMP280;11303;50.772;19.670;2022-12-18T09:28:00;100987.75;;;-1.85
22269;BMP280;11303;50.772;19.670;2022-12-18T09:30:02;100982.72;;;-2.06
22269;BMP280;11303;50.772;19.670;2022-12-18T09:32:04;100989.22;;;-2.04
22269;BMP280;11303;50.772;19.670;2022-12-18T09:34:06;100989.25;;;-1.99
22269;BMP280;11303;50.772;19.670;2022-12-18T09:36:10;100994.72;;;-2.00
22269;BMP280;11303;50.772;19.670;2022-12-18T09:38:16;100988.25;;;-1.93
22269;BMP280;11303;50.772;19.670;2022-12-18T09:40:21;100998.72;;;-1.83
22269;BMP280;11303;50.772;19.670;2022-12-18T09:42:23;100990.72;;;-1.71
22269;BMP280;11303;50.772;19.670;2022-12-18T09:44:36;100991.09;;;-1.42
22269;BMP280;11303;50.772;19.670;2022-12-18T09:48:57;100986.59;;;-0.80
22269;BMP280;11303;50.772;19.670;2022-12-18T09:51:08;100995.47;;;-0.66
22269;BMP280;11303;50.772;19.670;2022-12-18T09:53:15;100986.06;;;-0.87
22269;BMP280;11303;50.772;19.670;2022-12-18T09:55:25;100996.22;;;-0.91
22269;BMP280;11303;50.772;19.670;2022-12-18T09:57:42;100996.72;;;-0.99
22269;BMP280;11303;50.772;19.670;2022-12-18T09:59:51;101005.28;;;-1.08
22269;BMP280;11303;50.772;19.670;2022-12-18T10:01:54;101004.22;;;-1.17
22269;BMP280;11303;50.772;19.670;2022-12-18T10:03:56;101008.59;;;-1.33
22269;BMP280;11303;50.772;19.670;2022-12-18T10:06:18;101002.31;;;-1.42
22269;BMP280;11303;50.772;19.670;2022-12-18T10:08:40;101007.72;;;-1.53
22269;BMP280;11303;50.772;19.670;2022-12-18T10:10:51;100996.47;;;-1.64
22269;BMP280;11303;50.772;19.670;2022-12-18T10:13:19;100986.38;;;-1.55
22269;BMP280;11303;50.772;19.670;2022-12-18T10:15:39;100998.81;;;-1.67
22269;BMP280;11303;50.772;19.670;2022-12-18T10:18:05;100984.47;;;-1.75
22269;BMP280;11303;50.772;19.670;2022-12-18T10:22:25;100996.13;;;-1.77
22269;BMP280;11303;50.772;19.670;2022-12-18T10:27:11;101002.44;;;-1.68
22269;BMP280;11303;50.772;19.670;2022-12-18T10:29:15;100994.09;;;-1.75
22269;BMP280;11303;50.772;19.670;2022-12-18T10:31:19;100981.22;;;-1.92
22269;BMP280;11303;50.772;19.670;2022-12-18T10:33:29;100985.66;;;-1.93
22269;BMP280;11303;50.772;19.670;2022-12-18T10:35:31;100981.69;;;-1.58
22269;BMP280;11303;50.772;19.670;2022-12-18T10:37:32;100982.03;;;-1.35
22269;BMP280;11303;50.772;19.670;2022-12-18T10:39:34;100981.75;;;-1.33
22269;BMP280;11303;50.772;19.670;2022-12-18T10:41:35;100995.59;;;-1.28
22269;BMP280;11303;50.772;19.670;2022-12-18T10:43:38;100986.00;;;-1.07
22269;BMP280;11303;50.772;19.670;2022-12-18T10:45:41;100983.63;;;-1.29
22269;BMP280;11303;50.772;19.670;2022-12-18T10:47:45;100974.41;;;-1.51
22269;BMP280;11303;50.772;19.670;2022-12-18T10:49:50;100970.69;;;-1.70
22269;BMP280;11303;50.772;19.670;2022-12-18T10:52:17;100969.44;;;-1.63
22269;BMP280;11303;50.772;19.670;2022-12-18T10:54:22;100978.56;;;-1.50
22269;BMP280;11303;50.772;19.670;2022-12-18T10:56:29;100981.69;;;-1.58
22269;BMP280;11303;50.772;19.670;2022-12-18T10:58:36;100976.47;;;-1.53
22269;BMP280;11303;50.772;19.670;2022-12-18T11:00:38;100968.44;;;-1.47
22269;BMP280;11303;50.772;19.670;2022-12-18T11:02:39;100960.88;;;-1.48
22269;BMP280;11303;50.772;19.670;2022-12-18T11:04:50;100965.06;;;-1.42
22269;BMP280;11303;50.772;19.670;2022-12-18T11:07:00;100960.94;;;-1.33
22269;BMP280;11303;50.772;19.670;2022-12-18T11:09:05;100964.09;;;-1.26
22269;BMP280;11303;50.772;19.670;2022-12-18T11:11:22;100965.72;;;-1.15
22269;BMP280;11303;50.772;19.670;2022-12-18T11:13:27;100976.66;;;-0.98
22269;BMP280;11303;50.772;19.670;2022-12-18T11:15:30;100982.41;;;-0.91
22269;BMP280;11303;50.772;19.670;2022-12-18T11:17:35;100987.59;;;-1.06
22269;BMP280;11303;50.772;19.670;2022-12-18T11:19:39;100988.84;;;-1.29
22269;BMP280;11303;50.772;19.670;2022-12-18T11:21:41;100985.28;;;-1.64
22269;BMP280;11303;50.772;19.670;2022-12-18T11:25:52;100980.41;;;-1.98
22269;BMP280;11303;50.772;19.670;2022-12-18T11:28:00;100990.50;;;-2.06
22269;BMP280;11303;50.772;19.670;2022-12-18T11:30:23;100987.66;;;-2.00
22269;BMP280;11303;50.772;19.670;2022-12-18T11:32:37;100989.00;;;-1.97
22269;BMP280;11303;50.772;19.670;2022-12-18T11:34:45;100988.91;;;-1.70
22269;BMP280;11303;50.772;19.670;2022-12-18T11:36:48;100990.75;;;-1.61
22269;BMP280;11303;50.772;19.670;2022-12-18T11:38:52;100986.38;;;-1.50
22269;BMP280;11303;50.772;19.670;2022-12-18T11:41:07;100987.91;;;-1.64
22269;BMP280;11303;50.772;19.670;2022-12-18T11:43:27;100988.06;;;-1.81
22269;BMP280;11303;50.772;19.670;2022-12-18T11:45:33;100985.91;;;-1.94
22269;BMP280;11303;50.772;19.670;2022-12-18T11:50:48;100978.28;;;-1.59
22269;BMP280;11303;50.772;19.670;2022-12-18T11:52:51;100976.56;;;-1.90
22269;BMP280;11303;50.772;19.670;2022-12-18T11:55:04;100982.69;;;-1.64
22269;BMP280;11303;50.772;19.670;2022-12-18T11:59:37;100980.78;;;-1.22
22269;BMP280;11303;50.772;19.670;2022-12-18T12:06:13;100995.50;;;-1.53
22269;BMP280;11303;50.772;19.670;2022-12-18T12:08:48;100996.47;;;-1.64
22269;BMP280;11303;50.772;19.670;2022-12-18T12:18:07;100998.84;;;-2.36
22269;BMP280;11303;50.772;19.670;2022-12-18T12:20:56;101001.72;;;-2.32
22269;BMP280;11303;50.772;19.670;2022-12-18T12:25:27;100992.81;;;-2.10
22269;BMP280;11303;50.772;19.670;2022-12-18T12:27:55;100990.50;;;-2.06
22269;BMP280;11303;50.772;19.670;2022-12-18T12:30:07;100998.06;;;-2.05
22269;BMP280;11303;50.772;19.670;2022-12-18T12:39:18;101009.03;;;-1.98
22269;BMP280;11303;50.772;19.670;2022-12-18T12:41:26;100997.56;;;-2.02
22269;BMP280;11303;50.772;19.670;2022-12-18T12:43:48;101015.22;;;-2.04
22269;BMP280;11303;50.772;19.670;2022-12-18T12:45:53;101018.16;;;-1.90